createdAt,value
2018-10-03T00:01:40.817Z,99.90
2018-10-03T00:04:08.813Z,99.90
2018-10-03T00:06:36.793Z,99.90
2018-10-03T00:09:06.597Z,99.90
2018-10-03T00:11:34.614Z,99.90
2018-10-03T00:14:02.731Z,99.90
2018-10-03T00:16:30.714Z,99.90
2018-10-03T00:18:58.722Z,99.90
2018-10-03T00:21:26.815Z,99.90
2018-10-03T00:23:54.821Z,99.90
2018-10-03T00:26:22.819Z,99.90
2018-10-03T00:28:51.009Z,99.90
2018-10-03T00:31:18.977Z,99.90
2018-10-03T00:33:46.980Z,99.90
2018-10-03T00:36:14.958Z,99.90
2018-10-03T00:38:42.951Z,99.90
2018-10-03T00:41:10.937Z,99.90
2018-10-03T00:43:39.083Z,99.90
2018-10-03T00:46:07.406Z,99.90
2018-10-03T00:48:35.634Z,99.90
2018-10-03T00:51:03.664Z,99.90
2018-10-03T00:53:31.810Z,99.90
2018-10-03T00:56:00.056Z,99.90
2018-10-03T00:58:28.195Z,99.90
2018-10-03T01:00:56.359Z,99.90
2018-10-03T01:03:24.524Z,99.90
2018-10-03T01:05:52.614Z,99.90
2018-10-03T01:08:20.717Z,99.90
2018-10-03T01:10:48.865Z,99.90
2018-10-03T01:13:16.979Z,99.90
2018-10-03T01:15:45.077Z,99.90
2018-10-03T01:18:13.143Z,99.90
2018-10-03T01:20:41.401Z,99.90
2018-10-03T01:23:09.489Z,99.90
2018-10-03T01:25:37.524Z,99.90
2018-10-03T01:28:05.781Z,99.90
2018-10-03T01:30:33.788Z,99.90
2018-10-03T01:33:01.779Z,99.90
2018-10-03T01:35:29.730Z,99.90
2018-10-03T01:37:57.787Z,99.90
2018-10-03T01:40:25.767Z,99.90
2018-10-03T01:42:53.696Z,99.90
2018-10-03T01:45:21.675Z,99.90
2018-10-03T01:47:49.766Z,99.90
2018-10-03T01:50:17.751Z,99.90
2018-10-03T01:52:45.753Z,99.90
2018-10-03T01:55:13.758Z,99.90
2018-10-03T01:57:41.718Z,99.90
2018-10-03T02:00:09.717Z,99.90
2018-10-03T02:02:37.692Z,99.90
2018-10-03T02:05:05.736Z,99.90
2018-10-03T02:07:33.801Z,99.90
2018-10-03T02:10:01.776Z,99.90
2018-10-03T02:12:29.746Z,99.90
2018-10-03T02:14:59.798Z,99.90
2018-10-03T02:17:27.778Z,99.90
2018-10-03T02:19:55.762Z,99.90
2018-10-03T02:22:23.724Z,99.90
2018-10-03T02:24:51.799Z,99.90
2018-10-03T02:27:19.908Z,99.90
2018-10-03T02:29:47.884Z,99.90
2018-10-03T02:32:15.947Z,99.90
2018-10-03T02:34:43.940Z,99.90
2018-10-03T02:37:11.923Z,99.90
2018-10-03T02:39:39.850Z,99.90
2018-10-03T02:42:07.920Z,99.90
2018-10-03T02:44:35.979Z,99.90
2018-10-03T02:47:03.929Z,99.90
2018-10-03T02:49:31.915Z,99.90
2018-10-03T02:51:59.896Z,99.90
2018-10-03T02:54:27.941Z,99.90
2018-10-03T02:56:55.922Z,99.90
2018-10-03T02:59:23.913Z,99.90
2018-10-03T03:01:51.980Z,99.90
2018-10-03T03:04:19.888Z,99.90
2018-10-03T03:06:47.811Z,99.90
2018-10-03T03:09:15.745Z,99.90
2018-10-03T03:11:43.740Z,99.90
2018-10-03T03:14:11.686Z,99.90
2018-10-03T03:16:39.654Z,99.90
2018-10-03T03:19:07.850Z,99.90
2018-10-03T03:21:36.174Z,99.90
2018-10-03T03:24:04.193Z,99.90
2018-10-03T03:26:32.306Z,99.90
2018-10-03T03:29:00.304Z,99.90
2018-10-03T03:31:28.353Z,99.90
2018-10-03T03:33:56.318Z,99.90
2018-10-03T03:36:24.349Z,99.90
2018-10-03T03:38:52.321Z,99.90
2018-10-03T03:41:20.274Z,99.90
2018-10-03T03:43:48.505Z,99.90
2018-10-03T03:46:16.463Z,99.90
2018-10-03T03:48:44.448Z,99.90
2018-10-03T03:51:12.458Z,99.90
2018-10-03T03:53:40.456Z,99.90
2018-10-03T03:56:08.461Z,99.90
2018-10-03T03:58:36.392Z,99.90
2018-10-03T04:01:04.486Z,99.90
2018-10-03T04:03:32.470Z,99.90
2018-10-03T04:06:00.422Z,99.90
2018-10-03T04:08:28.374Z,99.90
2018-10-03T04:10:56.477Z,99.90
2018-10-03T04:13:24.460Z,99.90
2018-10-03T04:15:52.492Z,99.90
2018-10-03T04:18:20.662Z,99.90
2018-10-03T04:20:48.692Z,99.90
2018-10-03T04:23:16.701Z,99.90
2018-10-03T04:25:44.630Z,99.90
2018-10-03T04:28:12.711Z,99.90
2018-10-03T04:30:40.743Z,99.90
2018-10-03T04:33:08.712Z,99.90
2018-10-03T04:35:36.643Z,99.90
2018-10-03T04:38:04.669Z,99.90
2018-10-03T04:40:32.633Z,99.90
2018-10-03T04:43:00.574Z,99.90
2018-10-03T04:45:28.549Z,99.90
2018-10-03T04:47:56.574Z,99.90
2018-10-03T04:50:24.559Z,99.90
2018-10-03T04:52:52.513Z,99.90
2018-10-03T04:55:20.503Z,99.90
2018-10-03T04:57:48.527Z,99.90
2018-10-03T05:00:16.514Z,99.90
2018-10-03T05:02:44.478Z,99.90
2018-10-03T05:05:12.442Z,99.90
2018-10-03T05:07:40.532Z,99.90
2018-10-03T05:10:08.468Z,99.90
2018-10-03T05:12:36.424Z,99.90
2018-10-03T05:15:04.433Z,99.90
2018-10-03T05:17:32.467Z,99.90
2018-10-03T05:20:00.445Z,99.90
2018-10-03T05:22:28.505Z,99.90
2018-10-03T05:24:56.519Z,99.90
2018-10-03T05:27:24.475Z,99.90
2018-10-03T05:29:52.448Z,99.90
2018-10-03T05:32:20.407Z,99.90
2018-10-03T05:34:48.490Z,99.90
2018-10-03T05:37:16.523Z,99.90
2018-10-03T05:39:44.541Z,99.90
2018-10-03T05:42:12.532Z,99.90
2018-10-03T05:44:40.578Z,99.90
2018-10-03T05:47:08.992Z,99.90
2018-10-03T05:49:36.975Z,99.90
2018-10-03T05:52:04.974Z,99.90
2018-10-03T05:54:33.088Z,99.90
2018-10-03T05:57:01.042Z,99.90
2018-10-03T05:59:29.031Z,99.90
2018-10-03T06:01:56.998Z,99.90
2018-10-03T06:04:25.022Z,99.90
2018-10-03T06:06:53.016Z,99.80
2018-10-03T06:09:21.048Z,99.60
2018-10-03T06:11:50.089Z,99.40
2018-10-03T06:14:18.156Z,99.10
2018-10-03T06:16:46.103Z,98.80
2018-10-03T06:19:14.157Z,98.30
2018-10-03T06:21:42.189Z,98.40
2018-10-03T06:24:10.196Z,98.10
2018-10-03T06:26:38.155Z,98.20
2018-10-03T06:29:06.083Z,98.00
2018-10-03T06:31:34.075Z,98.30
2018-10-03T06:34:02.064Z,96.70
2018-10-03T06:36:30.051Z,96.60
2018-10-03T06:38:57.974Z,95.80
2018-10-03T06:41:26.078Z,94.80
2018-10-03T06:43:54.147Z,95.00
2018-10-03T06:46:22.143Z,95.00
2018-10-03T06:48:50.228Z,94.60
2018-10-03T06:51:18.246Z,94.30
2018-10-03T06:53:46.410Z,94.10
2018-10-03T06:56:14.448Z,94.00
2018-10-03T06:58:42.430Z,93.90
2018-10-03T07:01:10.580Z,93.80
2018-10-03T07:03:38.601Z,93.10
2018-10-03T07:06:06.632Z,93.30
2018-10-03T07:08:34.621Z,92.80
2018-10-03T07:11:02.590Z,92.80
2018-10-03T07:13:30.564Z,92.80
2018-10-03T07:15:58.501Z,92.80
2018-10-03T07:18:26.453Z,92.90
2018-10-03T07:20:54.397Z,92.80
2018-10-03T07:23:27.886Z,92.80
2018-10-03T07:25:55.818Z,92.70
2018-10-03T07:28:23.786Z,92.70
2018-10-03T07:30:51.789Z,92.60
2018-10-03T07:33:25.434Z,92.60
2018-10-03T07:35:53.456Z,92.60
2018-10-03T07:38:21.681Z,92.60
2018-10-03T07:41:03.400Z,92.70
2018-10-03T07:43:31.368Z,92.70
2018-10-03T07:45:59.327Z,92.90
2018-10-03T07:48:27.421Z,93.00
2018-10-03T07:50:56.528Z,93.10
2018-10-03T07:53:24.952Z,93.10
2018-10-03T07:55:52.980Z,93.10
2018-10-03T07:58:20.950Z,93.00
2018-10-03T08:00:53.884Z,91.80
2018-10-03T08:03:21.939Z,91.90
2018-10-03T08:05:49.953Z,91.70
2018-10-03T08:08:17.962Z,91.40
2018-10-03T08:10:46.075Z,91.40
2018-10-03T08:13:14.041Z,91.30
2018-10-03T08:15:42.033Z,91.30
2018-10-03T08:18:10.051Z,91.30
2018-10-03T08:20:41.704Z,91.10
2018-10-03T08:23:09.716Z,90.80
2018-10-03T08:25:37.759Z,91.00
2018-10-03T08:28:06.127Z,91.20
2018-10-03T08:30:34.135Z,91.30
2018-10-03T08:33:02.428Z,91.10
2018-10-03T08:35:30.336Z,90.80
2018-10-03T08:37:58.351Z,90.60
2018-10-03T08:40:26.392Z,90.80
2018-10-03T08:42:54.469Z,90.40
2018-10-03T08:45:22.569Z,90.60
2018-10-03T08:47:50.541Z,90.60
2018-10-03T08:50:18.516Z,90.60
2018-10-03T08:52:46.505Z,90.40
2018-10-03T08:55:14.586Z,89.60
2018-10-03T08:57:42.751Z,88.30
2018-10-03T09:00:11.048Z,88.80
2018-10-03T09:02:39.001Z,89.00
2018-10-03T09:05:08.054Z,89.10
2018-10-03T09:07:36.021Z,89.40
2018-10-03T09:10:04.065Z,90.00
2018-10-03T09:12:32.099Z,90.10
2018-10-03T09:15:00.090Z,90.40
2018-10-03T09:17:28.075Z,90.10
2018-10-03T09:19:56.037Z,90.30
2018-10-03T09:22:24.059Z,90.30
2018-10-03T09:24:52.013Z,90.40
2018-10-03T09:27:19.968Z,90.70
2018-10-03T09:29:47.974Z,90.60
2018-10-03T09:32:15.930Z,90.50
2018-10-03T09:34:43.926Z,90.50
2018-10-03T09:37:12.056Z,90.80
2018-10-03T09:39:40.135Z,90.90
2018-10-03T09:42:08.086Z,91.20
2018-10-03T09:44:36.171Z,91.40
2018-10-03T09:47:04.171Z,91.50
2018-10-03T09:49:32.204Z,91.60
2018-10-03T09:52:00.163Z,91.60
2018-10-03T09:54:28.277Z,90.80
2018-10-03T09:56:56.253Z,89.40
2018-10-03T09:59:24.208Z,89.70
2018-10-03T10:01:52.179Z,88.70
2018-10-03T10:04:20.272Z,87.70
2018-10-03T10:06:48.440Z,87.20
2018-10-03T10:09:16.404Z,87.40
2018-10-03T10:11:44.714Z,88.00
2018-10-03T10:14:12.435Z,87.60
2018-10-03T10:16:40.409Z,87.70
2018-10-03T10:19:08.486Z,87.30
2018-10-03T10:21:36.466Z,87.60
2018-10-03T10:24:04.463Z,88.10
2018-10-03T10:26:32.636Z,86.70
2018-10-03T10:29:00.648Z,85.70
2018-10-03T10:31:28.638Z,84.80
2018-10-03T10:33:56.635Z,84.40
2018-10-03T10:36:24.682Z,84.20
2018-10-03T10:38:52.707Z,84.60
2018-10-03T10:41:20.919Z,86.00
2018-10-03T10:43:48.755Z,86.50
2018-10-03T10:46:16.730Z,87.90
2018-10-03T10:48:44.669Z,88.40
2018-10-03T10:51:12.807Z,89.50
2018-10-03T10:53:40.775Z,90.10
2018-10-03T10:56:08.719Z,90.60
2018-10-03T10:58:36.761Z,91.10
2018-10-03T11:01:04.802Z,91.70
2018-10-03T11:03:32.790Z,91.90
2018-10-03T11:06:00.754Z,91.30
2018-10-03T11:08:28.746Z,90.80
2018-10-03T11:10:56.792Z,90.10
2018-10-03T11:13:24.772Z,88.30
2018-10-03T11:15:52.743Z,86.40
2018-10-03T11:18:20.699Z,87.00
2018-10-03T11:20:48.688Z,86.40
2018-10-03T11:23:16.654Z,86.80
2018-10-03T11:25:44.751Z,87.40
2018-10-03T11:28:12.767Z,87.20
2018-10-03T11:30:40.733Z,86.90
2018-10-03T11:33:08.701Z,86.80
2018-10-03T11:35:36.671Z,86.20
2018-10-03T11:38:04.900Z,86.40
2018-10-03T11:40:32.950Z,86.70
2018-10-03T11:43:01.043Z,86.90
2018-10-03T11:45:29.031Z,86.90
2018-10-03T11:47:57.037Z,87.10
2018-10-03T11:50:25.048Z,86.90
2018-10-03T11:52:53.150Z,85.90
2018-10-03T11:55:21.174Z,85.40
2018-10-03T11:57:49.132Z,85.00
2018-10-03T12:00:17.129Z,84.30
2018-10-03T12:02:45.296Z,84.30
2018-10-03T12:05:13.222Z,84.30
2018-10-03T12:07:41.194Z,83.70
2018-10-03T12:10:09.248Z,83.50
2018-10-03T12:12:37.288Z,81.20
2018-10-03T12:15:05.517Z,80.40
2018-10-03T12:17:33.521Z,78.50
2018-10-03T12:20:01.469Z,78.50
2018-10-03T12:22:29.568Z,77.50
2018-10-03T12:24:57.623Z,76.70
2018-10-03T12:27:25.605Z,76.20
2018-10-03T12:29:53.566Z,75.90
2018-10-03T12:32:21.792Z,74.90
2018-10-03T12:34:49.745Z,75.00
2018-10-03T12:37:17.878Z,75.00
2018-10-03T12:39:45.955Z,72.50
2018-10-03T12:42:13.927Z,72.70
2018-10-03T12:44:42.037Z,73.50
2018-10-03T12:47:10.026Z,72.70
2018-10-03T12:49:38.046Z,71.00
2018-10-03T12:52:06.937Z,70.80
2018-10-03T12:54:34.965Z,70.70
2018-10-03T12:57:02.988Z,70.80
2018-10-03T12:59:31.081Z,70.40
2018-10-03T13:01:59.306Z,70.10
2018-10-03T13:04:27.444Z,69.80
2018-10-03T13:06:55.618Z,69.80
2018-10-03T13:09:23.669Z,71.20
2018-10-03T13:11:51.855Z,70.70
2018-10-03T13:14:19.958Z,71.50
2018-10-03T13:16:48.047Z,71.20
2018-10-03T13:19:16.237Z,70.70
2018-10-03T13:21:44.255Z,71.20
2018-10-03T13:24:12.399Z,72.20
2018-10-03T13:26:40.507Z,72.00
2018-10-03T13:29:08.492Z,71.80
2018-10-03T13:31:36.595Z,72.30
2018-10-03T13:34:04.605Z,72.50
2018-10-03T13:36:32.609Z,72.80
2018-10-03T13:39:00.648Z,72.80
2018-10-03T13:41:29.630Z,72.80
2018-10-03T13:43:57.619Z,72.80
2018-10-03T13:46:25.627Z,72.40
2018-10-03T13:48:53.635Z,71.70
2018-10-03T13:51:21.663Z,72.10
2018-10-03T13:53:49.669Z,71.70
2018-10-03T13:56:18.794Z,71.80
2018-10-03T13:58:46.776Z,71.80
2018-10-03T14:01:14.757Z,71.00
2018-10-03T14:03:42.780Z,70.30
2018-10-03T14:06:10.905Z,69.50
2018-10-03T14:08:38.920Z,69.20
2018-10-03T14:11:07.393Z,69.20
2018-10-03T14:13:35.388Z,70.20
2018-10-03T14:16:03.722Z,70.60
2018-10-03T14:18:31.722Z,70.40
2018-10-03T14:20:59.670Z,70.60
2018-10-03T14:23:27.639Z,70.40
2018-10-03T14:25:55.639Z,69.30
2018-10-03T14:28:23.707Z,68.00
2018-10-03T14:30:51.777Z,68.40
2018-10-03T14:33:19.792Z,69.00
2018-10-03T14:35:47.914Z,69.40
2018-10-03T14:38:15.955Z,68.20
2018-10-03T14:40:43.958Z,66.70
2018-10-03T14:43:11.956Z,67.70
2018-10-03T14:45:40.260Z,67.50
2018-10-03T14:48:08.382Z,67.30
2018-10-03T14:50:37.413Z,66.50
2018-10-03T14:53:05.458Z,67.00
2018-10-03T14:55:33.543Z,66.70
2018-10-03T14:58:01.556Z,67.10
2018-10-03T15:00:29.617Z,66.40
2018-10-03T15:02:57.646Z,66.80
2018-10-03T15:05:25.655Z,66.90
2018-10-03T15:07:54.601Z,67.60
2018-10-03T15:10:22.938Z,68.00
2018-10-03T15:12:51.156Z,68.20
2018-10-03T15:15:19.428Z,68.30
2018-10-03T15:17:47.564Z,68.60
2018-10-03T15:20:21.982Z,68.60
2018-10-03T15:22:50.121Z,68.50
2018-10-03T15:25:18.183Z,68.80
2018-10-03T15:27:49.856Z,68.80
2018-10-03T15:30:18.212Z,69.20
2018-10-03T15:32:46.494Z,69.00
2018-10-03T15:35:18.345Z,69.10
2018-10-03T15:37:46.529Z,69.10
2018-10-03T15:40:14.565Z,69.40
2018-10-03T15:42:42.577Z,69.50
2018-10-03T15:45:11.665Z,70.50
2018-10-03T15:47:39.792Z,69.80
2018-10-03T15:50:08.586Z,69.90
2018-10-03T15:52:36.949Z,70.10
2018-10-03T15:55:05.249Z,70.40
2018-10-03T15:57:34.120Z,70.50
2018-10-03T16:00:02.328Z,70.60
2018-10-03T16:02:30.374Z,70.80
2018-10-03T16:04:58.423Z,71.00
2018-10-03T16:07:26.409Z,71.20
2018-10-03T16:09:54.397Z,71.50
2018-10-03T16:12:23.690Z,71.70
2018-10-03T16:14:51.636Z,71.90
2018-10-03T16:17:19.693Z,72.10
2018-10-03T16:19:47.703Z,72.30
2018-10-03T16:22:15.844Z,72.60
2018-10-03T16:24:43.861Z,72.60
2018-10-03T16:27:11.868Z,72.60
2018-10-03T16:29:40.263Z,72.70
2018-10-03T16:32:15.155Z,72.90
2018-10-03T16:34:43.174Z,73.00
2018-10-03T16:37:11.170Z,73.20
2018-10-03T16:39:39.157Z,73.30
2018-10-03T16:42:11.132Z,73.40
2018-10-03T16:44:39.090Z,73.60
2018-10-03T16:47:08.085Z,73.80
2018-10-03T16:49:36.072Z,74.10
2018-10-03T16:52:04.214Z,74.10
2018-10-03T16:54:32.294Z,74.30
2018-10-03T16:57:00.969Z,74.50
2018-10-03T16:59:29.096Z,74.80
2018-10-03T17:01:57.077Z,74.80
2018-10-03T17:04:25.108Z,75.00
2018-10-03T17:07:00.363Z,75.10
2018-10-03T17:09:28.373Z,75.30
2018-10-03T17:11:56.389Z,75.30
2018-10-03T17:14:28.049Z,75.60
2018-10-03T17:16:56.251Z,76.00
2018-10-03T17:19:24.464Z,76.10
2018-10-03T17:21:53.146Z,76.00
2018-10-03T17:24:22.552Z,76.00
2018-10-03T17:26:50.609Z,76.20
2018-10-03T17:29:18.648Z,77.50
2018-10-03T17:31:47.152Z,77.80
2018-10-03T17:34:16.228Z,77.80
2018-10-03T17:36:46.190Z,78.20
2018-10-03T17:39:14.676Z,78.70
2018-10-03T17:41:43.381Z,79.00
2018-10-03T17:44:11.990Z,79.30
2018-10-03T17:46:40.033Z,79.50
2018-10-03T17:49:08.084Z,79.60
2018-10-03T17:51:36.223Z,79.70
2018-10-03T17:54:04.232Z,79.90
2018-10-03T17:56:32.247Z,80.10
2018-10-03T17:59:08.264Z,80.10
2018-10-03T18:01:39.293Z,80.30
2018-10-03T18:04:07.348Z,80.50
2018-10-03T18:06:35.459Z,80.70
2018-10-03T18:09:04.929Z,80.80
2018-10-03T18:11:32.803Z,80.80
2018-10-03T18:14:00.872Z,80.90
2018-10-03T18:16:34.545Z,81.10
2018-10-03T18:19:02.659Z,81.20
2018-10-03T18:21:30.666Z,81.40
2018-10-03T18:23:59.558Z,81.50
2018-10-03T18:26:51.276Z,81.60
2018-10-03T18:29:19.323Z,81.70
2018-10-03T18:31:47.390Z,81.80
2018-10-03T18:34:15.546Z,81.90
2018-10-03T18:36:43.611Z,82.00
2018-10-03T18:39:11.869Z,82.10
2018-10-03T18:41:40.272Z,82.10
2018-10-03T18:44:08.456Z,82.30
2018-10-03T18:46:36.479Z,82.40
2018-10-03T18:49:04.496Z,82.50
2018-10-03T18:51:35.924Z,82.50
2018-10-03T18:54:03.943Z,82.70
2018-10-03T18:56:32.011Z,82.70
2018-10-03T18:59:00.115Z,82.80
2018-10-03T19:01:32.916Z,82.80
2018-10-03T19:04:00.891Z,82.90
2018-10-03T19:06:28.981Z,83.00
2018-10-03T19:08:58.021Z,83.00
2018-10-03T19:11:32.361Z,83.10
2018-10-03T19:14:00.391Z,83.30
2018-10-03T19:16:28.427Z,83.40
2018-10-03T19:18:56.461Z,83.40
2018-10-03T19:21:24.492Z,83.50
2018-10-03T19:23:57.078Z,83.50
2018-10-03T19:26:25.208Z,83.50
2018-10-03T19:28:53.233Z,83.40
2018-10-03T19:31:21.271Z,83.50
2018-10-03T19:33:57.579Z,83.70
2018-10-03T19:36:25.669Z,83.70
2018-10-03T19:38:53.625Z,83.70
2018-10-03T19:41:21.721Z,83.90
2018-10-03T19:43:54.066Z,84.00
2018-10-03T19:46:22.056Z,84.00
2018-10-03T19:48:50.215Z,84.10
2018-10-03T19:51:21.667Z,84.20
2018-10-03T19:53:49.780Z,84.10
2018-10-03T19:56:17.795Z,84.20
2018-10-03T19:58:45.821Z,84.20
2018-10-03T20:01:13.957Z,84.20
2018-10-03T20:03:42.201Z,84.20
2018-10-03T20:06:10.467Z,84.30
2018-10-03T20:08:45.905Z,84.40
2018-10-03T20:11:14.016Z,84.50
2018-10-03T20:13:42.211Z,84.50
2018-10-03T20:16:10.308Z,84.40
2018-10-03T20:18:38.365Z,84.40
2018-10-03T20:21:06.441Z,84.50
2018-10-03T20:23:34.460Z,84.60
2018-10-03T20:26:13.868Z,84.60
2018-10-03T20:28:41.876Z,84.60
2018-10-03T20:31:09.866Z,84.50
2018-10-03T20:33:37.822Z,84.60
2018-10-03T20:36:06.044Z,84.60
2018-10-03T20:38:33.995Z,84.50
2018-10-03T20:41:01.985Z,84.70
2018-10-03T20:43:29.991Z,84.70
2018-10-03T20:45:58.235Z,84.80
2018-10-03T20:48:26.271Z,85.00
2018-10-03T20:50:54.297Z,85.20
2018-10-03T20:53:22.302Z,85.30
2018-10-03T20:55:54.250Z,85.60
2018-10-03T20:58:22.239Z,85.70
2018-10-03T21:00:50.358Z,85.70
2018-10-03T21:03:18.339Z,85.80
2018-10-03T21:05:47.426Z,85.90
2018-10-03T21:08:15.432Z,86.00
2018-10-03T21:10:43.506Z,86.10
2018-10-03T21:13:11.876Z,86.10
2018-10-03T21:15:58.494Z,86.30
2018-10-03T21:18:26.515Z,86.30
2018-10-03T21:20:54.588Z,86.40
2018-10-03T21:23:22.640Z,86.50
2018-10-03T21:25:56.864Z,86.60
2018-10-03T21:28:24.914Z,86.70
2018-10-03T21:30:52.908Z,86.80
2018-10-03T21:33:20.936Z,86.90
2018-10-03T21:35:53.593Z,86.90
2018-10-03T21:38:21.554Z,87.00
2018-10-03T21:40:49.545Z,87.10
2018-10-03T21:43:17.509Z,87.00
2018-10-03T21:45:46.675Z,87.10
2018-10-03T21:48:14.693Z,87.10
2018-10-03T21:50:42.695Z,87.20
2018-10-03T21:53:10.705Z,87.30
2018-10-03T21:55:42.156Z,87.40
2018-10-03T21:58:10.177Z,87.50
2018-10-03T22:00:43.734Z,87.70
2018-10-03T22:03:11.723Z,87.80
2018-10-03T22:05:39.793Z,87.70
2018-10-03T22:08:07.774Z,87.80
2018-10-03T22:10:35.716Z,87.90
2018-10-03T22:13:07.659Z,88.10
2018-10-03T22:15:35.692Z,88.20
2018-10-03T22:18:03.739Z,88.20
2018-10-03T22:20:31.864Z,88.20
2018-10-03T22:22:59.905Z,88.30
2018-10-03T22:25:27.870Z,88.30
2018-10-03T22:27:55.885Z,88.30
2018-10-03T22:30:24.378Z,88.40
2018-10-03T22:32:52.407Z,88.50
2018-10-03T22:35:20.376Z,88.70
2018-10-03T22:37:55.877Z,89.00
2018-10-03T22:40:23.867Z,89.20
2018-10-03T22:42:51.864Z,89.40
2018-10-03T22:45:21.005Z,89.60
2018-10-03T22:47:48.988Z,89.90
2018-10-03T22:50:16.975Z,89.90
2018-10-03T22:52:44.941Z,90.00
2018-10-03T22:55:19.155Z,90.00
2018-10-03T22:57:47.118Z,90.30
2018-10-03T23:00:15.134Z,90.10
2018-10-03T23:02:43.102Z,90.20
2018-10-03T23:05:15.966Z,90.30
2018-10-03T23:07:43.971Z,90.40
2018-10-03T23:10:12.045Z,90.50
2018-10-03T23:12:49.628Z,90.60
2018-10-03T23:15:17.587Z,90.70
2018-10-03T23:17:45.581Z,91.10
2018-10-03T23:20:13.665Z,90.90
2018-10-03T23:22:41.634Z,91.10
2018-10-03T23:25:09.623Z,91.20
2018-10-03T23:27:37.645Z,91.20
2018-10-03T23:30:06.165Z,91.30
2018-10-03T23:32:34.079Z,91.30
2018-10-03T23:35:02.094Z,91.40
2018-10-03T23:37:30.129Z,91.40
2018-10-03T23:39:58.232Z,91.40
2018-10-03T23:42:26.245Z,91.40
2018-10-03T23:44:54.245Z,91.40
2018-10-03T23:47:22.244Z,91.40
2018-10-03T23:49:50.260Z,91.40
2018-10-03T23:52:18.390Z,91.30
2018-10-03T23:54:46.390Z,91.30
2018-10-03T23:57:14.434Z,91.30
2018-10-03T23:59:42.462Z,91.30
